createdAt,value
2016-05-20T00:00:48.316Z,0
2016-05-20T00:01:56.804Z,0
2016-05-20T00:02:50.712Z,0
2016-05-20T00:03:48.278Z,0
2016-05-20T00:04:47.639Z,0
2016-05-20T00:05:53.564Z,0
2016-05-20T00:06:50.707Z,0
2016-05-20T00:07:47.179Z,0
2016-05-20T00:08:53.275Z,0
2016-05-20T00:09:47.887Z,0
2016-05-20T00:10:47.156Z,0
2016-05-20T00:11:47.252Z,0
2016-05-20T00:12:46.864Z,0
2016-05-20T00:13:50.194Z,0
2016-05-20T00:14:47.089Z,0
2016-05-20T00:15:50.310Z,0
2016-05-20T00:16:56.125Z,0
2016-05-20T00:17:47.878Z,0
2016-05-20T00:18:52.818Z,0
2016-05-20T00:19:49.711Z,0
2016-05-20T00:20:50.136Z,0
2016-05-20T00:21:46.654Z,0
2016-05-20T00:22:46.719Z,0
2016-05-20T00:23:49.660Z,0
2016-05-20T00:24:56.115Z,0
2016-05-20T00:25:46.649Z,0
2016-05-20T00:26:46.542Z,0
2016-05-20T00:27:49.482Z,0
2016-05-20T00:28:46.626Z,0
2016-05-20T00:29:55.379Z,0
2016-05-20T00:30:46.522Z,0
2016-05-20T00:31:46.274Z,0
2016-05-20T00:32:49.246Z,0
2016-05-20T00:33:48.890Z,0
2016-05-20T00:34:46.018Z,0
2016-05-20T00:35:54.926Z,0
2016-05-20T00:36:51.898Z,0
2016-05-20T00:37:48.994Z,0
2016-05-20T00:38:49.903Z,0
2016-05-20T00:39:45.750Z,0
2016-05-20T00:40:45.908Z,0
2016-05-20T00:41:45.770Z,0
2016-05-20T00:42:51.741Z,0
2016-05-20T00:43:45.385Z,0
2016-05-20T00:44:45.482Z,0
2016-05-20T00:45:45.453Z,0
2016-05-20T00:46:45.768Z,0
2016-05-20T00:47:45.739Z,0
2016-05-20T00:48:48.461Z,0
2016-05-20T00:49:48.323Z,0
2016-05-20T00:50:44.888Z,0
2016-05-20T00:51:45.157Z,0
2016-05-20T00:52:52.863Z,0
2016-05-20T00:53:48.224Z,0
2016-05-20T00:54:45.836Z,0
2016-05-20T00:55:48.543Z,0
2016-05-20T00:56:45.263Z,0
2016-05-20T00:57:51.282Z,0
2016-05-20T00:58:45.160Z,0
2016-05-20T00:59:44.772Z,0
2016-05-20T01:00:44.727Z,0
2016-05-20T01:01:44.824Z,0
2016-05-20T01:02:47.655Z,0
2016-05-20T01:03:47.549Z,0
2016-05-20T01:04:47.660Z,0
2016-05-20T01:05:47.632Z,0
2016-05-20T01:06:44.681Z,0
2016-05-20T01:07:47.715Z,0
2016-05-20T01:08:50.390Z,0
2016-05-20T01:09:44.626Z,0
2016-05-20T01:10:47.270Z,0
2016-05-20T01:11:47.460Z,0
2016-05-20T01:12:50.134Z,0
2016-05-20T01:13:50.451Z,0
2016-05-20T01:14:44.218Z,0
2016-05-20T01:15:44.205Z,0
2016-05-20T01:16:53.349Z,0
2016-05-20T01:17:50.273Z,0
2016-05-20T01:18:56.042Z,0
2016-05-20T01:19:49.982Z,0
2016-05-20T01:20:49.922Z,0
2016-05-20T01:21:43.846Z,0
2016-05-20T01:22:46.880Z,0
2016-05-20T01:23:49.602Z,0
2016-05-20T01:24:46.448Z,0
2016-05-20T01:25:43.654Z,0
2016-05-20T01:26:46.454Z,0
2016-05-20T01:27:43.738Z,0
2016-05-20T01:28:43.366Z,0
2016-05-20T01:29:44.055Z,0
2016-05-20T01:31:00.512Z,0
2016-05-20T01:31:43.343Z,0
2016-05-20T01:32:46.360Z,0
2016-05-20T01:33:43.270Z,0
2016-05-20T01:34:46.194Z,0
2016-05-20T01:35:42.993Z,0
2016-05-20T01:36:49.324Z,0
2016-05-20T01:37:43.046Z,0
2016-05-20T01:38:46.236Z,0
2016-05-20T01:39:42.911Z,0
2016-05-20T01:40:45.928Z,0
2016-05-20T01:41:48.870Z,0
2016-05-20T01:42:43.029Z,0
2016-05-20T01:43:46.577Z,0
2016-05-20T01:44:45.690Z,0
2016-05-20T01:45:42.661Z,0
2016-05-20T01:46:42.617Z,0
2016-05-20T01:47:48.948Z,0
2016-05-20T01:48:42.513Z,0
2016-05-20T01:49:42.500Z,0
2016-05-20T01:50:42.330Z,0
2016-05-20T01:51:45.349Z,0
2016-05-20T01:52:48.774Z,0
2016-05-20T01:53:51.276Z,0
2016-05-20T01:54:51.872Z,0
2016-05-20T01:55:42.641Z,0
2016-05-20T01:56:42.144Z,0
2016-05-20T01:57:45.068Z,0
2016-05-20T01:58:42.055Z,0
2016-05-20T01:59:50.980Z,0
2016-05-20T02:00:44.921Z,0
2016-05-20T02:01:44.688Z,0
2016-05-20T02:02:47.848Z,0
2016-05-20T02:03:42.584Z,0
2016-05-20T02:04:47.931Z,0
2016-05-20T02:05:53.715Z,0
2016-05-20T02:06:47.842Z,0
2016-05-20T02:07:53.611Z,0
2016-05-20T02:08:47.551Z,0
2016-05-20T02:09:47.476Z,0
2016-05-20T02:10:44.963Z,0
2016-05-20T02:11:50.419Z,0
2016-05-20T02:12:44.031Z,0
2016-05-20T02:13:44.503Z,0
2016-05-20T02:14:41.098Z,0
2016-05-20T02:15:44.397Z,0
2016-05-20T02:16:47.042Z,0
2016-05-20T02:17:44.091Z,0
2016-05-20T02:18:41.250Z,0
2016-05-20T02:19:43.831Z,0
2016-05-20T02:20:43.786Z,0
2016-05-20T02:21:40.727Z,0
2016-05-20T02:22:44.244Z,0
2016-05-20T02:23:40.655Z,0
2016-05-20T02:24:53.360Z,0
2016-05-20T02:25:40.691Z,0
2016-05-20T02:26:46.663Z,0
2016-05-20T02:27:40.415Z,0
2016-05-20T02:28:40.543Z,0
2016-05-20T02:29:40.388Z,0
2016-05-20T02:30:43.704Z,0
2016-05-20T02:31:46.410Z,0
2016-05-20T02:32:40.724Z,0
2016-05-20T02:33:40.337Z,0
2016-05-20T02:34:43.854Z,0
2016-05-20T02:35:40.045Z,0
2016-05-20T02:36:43.157Z,0
2016-05-20T02:37:43.301Z,0
2016-05-20T02:38:40.085Z,0
2016-05-20T02:39:40.885Z,0
2016-05-20T02:40:40.528Z,0
2016-05-20T02:41:42.812Z,0
2016-05-20T02:42:42.596Z,0
2016-05-20T02:43:42.942Z,0
2016-05-20T02:44:48.726Z,0
2016-05-20T02:45:42.603Z,0
2016-05-20T02:46:39.934Z,0
2016-05-20T02:47:42.453Z,0
2016-05-20T02:48:42.768Z,0
2016-05-20T02:49:48.536Z,0
2016-05-20T02:50:45.461Z,0
2016-05-20T02:51:45.261Z,0
2016-05-20T02:52:42.373Z,0
2016-05-20T02:53:39.313Z,0
2016-05-20T02:54:42.550Z,0
2016-05-20T02:55:42.069Z,0
2016-05-20T02:56:42.024Z,0
2016-05-20T02:57:45.324Z,0
2016-05-20T02:58:45.076Z,0
2016-05-20T02:59:42.001Z,0
2016-05-20T03:00:38.972Z,0
2016-05-20T03:01:44.975Z,0
2016-05-20T03:02:44.885Z,0
2016-05-20T03:03:42.073Z,0
2016-05-20T03:04:41.468Z,0
2016-05-20T03:05:42.548Z,0
2016-05-20T03:06:41.707Z,0
2016-05-20T03:07:41.851Z,0
2016-05-20T03:08:41.775Z,0
2016-05-20T03:09:38.981Z,0
2016-05-20T03:10:38.343Z,0
2016-05-20T03:11:38.423Z,0
2016-05-20T03:12:38.411Z,0
2016-05-20T03:13:38.272Z,0
2016-05-20T03:14:44.353Z,0
2016-05-20T03:15:38.076Z,0
2016-05-20T03:16:38.031Z,0
2016-05-20T03:17:41.330Z,0
2016-05-20T03:18:41.318Z,0
2016-05-20T03:19:38.055Z,0
2016-05-20T03:20:38.213Z,0
2016-05-20T03:21:37.919Z,0
2016-05-20T03:22:37.906Z,0
2016-05-20T03:23:41.049Z,0
2016-05-20T03:24:43.380Z,0
2016-05-20T03:25:38.197Z,0
2016-05-20T03:26:38.135Z,0
2016-05-20T03:27:37.622Z,0
2016-05-20T03:28:37.641Z,0
2016-05-20T03:29:40.738Z,0
2016-05-20T03:30:40.569Z,0
2016-05-20T03:31:40.665Z,0
2016-05-20T03:32:40.371Z,0
2016-05-20T03:33:37.373Z,0
2016-05-20T03:34:40.126Z,0
2016-05-20T03:35:43.285Z,0
2016-05-20T03:36:49.037Z,0
2016-05-20T03:37:43.149Z,0
2016-05-20T03:38:40.121Z,0
2016-05-20T03:39:37.343Z,0
2016-05-20T03:40:43.204Z,0
2016-05-20T03:41:42.989Z,0
2016-05-20T03:42:42.898Z,0
2016-05-20T03:43:46.073Z,0
2016-05-20T03:44:39.997Z,0
2016-05-20T03:45:36.437Z,0
2016-05-20T03:46:36.689Z,0
2016-05-20T03:47:36.505Z,0
2016-05-20T03:48:36.647Z,0
2016-05-20T03:49:36.556Z,5
2016-05-20T03:50:36.919Z,5
2016-05-20T03:51:36.641Z,5
2016-05-20T03:52:39.409Z,5
2016-05-20T03:53:39.350Z,5
2016-05-20T03:54:36.852Z,5
2016-05-20T03:55:39.167Z,5
2016-05-20T03:56:36.233Z,5
2016-05-20T03:57:38.828Z,5
2016-05-20T03:58:36.238Z,5
2016-05-20T03:59:35.880Z,5
2016-05-20T04:00:36.102Z,5
2016-05-20T04:01:38.933Z,10
2016-05-20T04:02:38.749Z,10
2016-05-20T04:03:35.844Z,10
2016-05-20T04:04:35.629Z,10
2016-05-20T04:05:35.632Z,10
2016-05-20T04:06:35.932Z,10
2016-05-20T04:07:38.715Z,10
2016-05-20T04:08:38.857Z,10
2016-05-20T04:09:35.861Z,10
2016-05-20T04:10:35.504Z,10
2016-05-20T04:11:41.710Z,10
2016-05-20T04:12:38.431Z,10
2016-05-20T04:13:38.559Z,10
2016-05-20T04:14:38.531Z,10
2016-05-20T04:15:35.284Z,10
2016-05-20T04:16:41.396Z,15
2016-05-20T04:17:38.570Z,15
2016-05-20T04:18:34.807Z,15
2016-05-20T04:19:35.263Z,15
2016-05-20T04:20:40.844Z,15
2016-05-20T04:21:34.534Z,15
2016-05-20T04:22:37.786Z,20
2016-05-20T04:23:43.867Z,20
2016-05-20T04:24:37.589Z,20
2016-05-20T04:25:40.607Z,20
2016-05-20T04:26:43.563Z,25
2016-05-20T04:27:37.971Z,25
2016-05-20T04:28:37.646Z,25
2016-05-20T04:29:38.337Z,25
2016-05-20T04:30:37.558Z,25
2016-05-20T04:31:37.467Z,25
2016-05-20T04:32:40.282Z,25
2016-05-20T04:33:40.379Z,25
2016-05-20T04:34:40.241Z,25
2016-05-20T04:35:34.274Z,25
2016-05-20T04:36:40.449Z,25
2016-05-20T04:37:34.154Z,25
2016-05-20T04:38:43.158Z,30
2016-05-20T04:39:37.380Z,30
2016-05-20T04:40:37.023Z,30
2016-05-20T04:41:39.994Z,30
2016-05-20T04:42:34.059Z,35
2016-05-20T04:43:39.781Z,35
2016-05-20T04:44:39.846Z,30
2016-05-20T04:45:36.817Z,30
2016-05-20T04:46:33.757Z,35
2016-05-20T04:47:36.509Z,35
2016-05-20T04:48:36.669Z,35
2016-05-20T04:49:33.422Z,35
2016-05-20T04:50:36.517Z,35
2016-05-20T04:51:36.490Z,40
2016-05-20T04:52:36.633Z,40
2016-05-20T04:53:33.292Z,40
2016-05-20T04:54:36.764Z,40
2016-05-20T04:55:33.484Z,35
2016-05-20T04:56:33.236Z,40
2016-05-20T04:57:39.193Z,40
2016-05-20T04:58:36.196Z,40
2016-05-20T04:59:33.277Z,40
2016-05-20T05:00:33.247Z,40
2016-05-20T05:01:36.001Z,40
2016-05-20T05:02:35.768Z,40
2016-05-20T05:03:32.880Z,40
2016-05-20T05:04:32.822Z,40
2016-05-20T05:05:35.840Z,40
2016-05-20T05:06:32.749Z,40
2016-05-20T05:07:32.891Z,40
2016-05-20T05:08:32.488Z,40
2016-05-20T05:09:48.132Z,40
2016-05-20T05:10:32.884Z,45
2016-05-20T05:11:32.324Z,45
2016-05-20T05:12:41.936Z,50
2016-05-20T05:13:35.986Z,50
2016-05-20T05:14:32.535Z,50
2016-05-20T05:15:35.038Z,50
2016-05-20T05:16:38.291Z,55
2016-05-20T05:17:38.512Z,55
2016-05-20T05:18:38.000Z,55
2016-05-20T05:19:44.299Z,55
2016-05-20T05:20:35.099Z,55
2016-05-20T05:21:35.226Z,60
2016-05-20T05:22:35.556Z,60
2016-05-20T05:23:35.029Z,65
2016-05-20T05:24:34.547Z,65
2016-05-20T05:25:31.471Z,65
2016-05-20T05:26:31.567Z,65
2016-05-20T05:27:34.727Z,60
2016-05-20T05:28:35.042Z,60
2016-05-20T05:29:35.201Z,60
2016-05-20T05:30:43.282Z,60
2016-05-20T05:31:31.831Z,60
2016-05-20T05:32:31.647Z,60
2016-05-20T05:33:37.244Z,60
2016-05-20T05:34:31.261Z,60
2016-05-20T05:35:31.764Z,55
2016-05-20T05:36:31.094Z,55
2016-05-20T05:37:34.566Z,55
2016-05-20T05:38:31.585Z,55
2016-05-20T05:39:34.415Z,55
2016-05-20T05:40:31.263Z,55
2016-05-20T05:41:31.218Z,55
2016-05-20T05:42:30.814Z,55
2016-05-20T05:43:31.286Z,55
2016-05-20T05:44:34.287Z,55
2016-05-20T05:45:36.869Z,55
2016-05-20T05:46:30.762Z,50
2016-05-20T05:47:33.796Z,50
2016-05-20T05:48:36.517Z,50
2016-05-20T05:49:33.693Z,50
2016-05-20T05:50:30.789Z,50
2016-05-20T05:51:33.932Z,50
2016-05-20T05:52:30.981Z,45
2016-05-20T05:53:30.422Z,45
2016-05-20T05:54:30.237Z,45
2016-05-20T05:55:39.333Z,40
2016-05-20T05:56:30.290Z,35
2016-05-20T05:57:33.948Z,30
2016-05-20T05:58:48.464Z,35
2016-05-20T05:59:30.058Z,35
2016-05-20T06:00:39.636Z,35
2016-05-20T06:01:36.575Z,35
2016-05-20T06:02:30.185Z,40
2016-05-20T06:03:33.238Z,40
2016-05-20T06:04:36.148Z,35
2016-05-20T06:05:33.292Z,40
2016-05-20T06:06:33.061Z,40
2016-05-20T06:07:32.908Z,40
2016-05-20T06:08:30.002Z,35
2016-05-20T06:09:36.323Z,35
2016-05-20T06:10:35.987Z,35
2016-05-20T06:11:33.543Z,35
2016-05-20T06:12:33.098Z,35
2016-05-20T06:13:32.792Z,35
2016-05-20T06:14:32.750Z,35
2016-05-20T06:15:32.942Z,35
2016-05-20T06:16:32.744Z,35
2016-05-20T06:17:32.467Z,35
2016-05-20T06:18:32.785Z,40
2016-05-20T06:19:29.521Z,40
2016-05-20T06:20:29.448Z,35
2016-05-20T06:21:29.622Z,35
2016-05-20T06:22:32.393Z,35
2016-05-20T06:23:32.583Z,35
2016-05-20T06:24:29.491Z,40
2016-05-20T06:25:32.464Z,40
2016-05-20T06:26:28.858Z,45
2016-05-20T06:27:32.204Z,45
2016-05-20T06:28:29.145Z,50
2016-05-20T06:29:29.022Z,50
2016-05-20T06:30:29.009Z,50
2016-05-20T06:31:29.122Z,45
2016-05-20T06:32:28.734Z,45
2016-05-20T06:33:28.924Z,40
2016-05-20T06:34:32.442Z,40
2016-05-20T06:35:28.617Z,40
2016-05-20T06:36:40.573Z,50
2016-05-20T06:37:34.481Z,55
2016-05-20T06:38:34.797Z,60
2016-05-20T06:39:31.862Z,70
2016-05-20T06:40:31.833Z,75
2016-05-20T06:41:28.460Z,75
2016-05-20T06:42:31.464Z,75
2016-05-20T06:43:28.341Z,70
2016-05-20T06:44:31.297Z,65
2016-05-20T06:45:35.581Z,60
2016-05-20T06:46:37.490Z,50
2016-05-20T06:47:37.399Z,50
2016-05-20T06:48:28.087Z,50
2016-05-20T06:49:40.342Z,50
2016-05-20T06:50:31.204Z,55
2016-05-20T06:51:40.957Z,55
2016-05-20T06:52:30.912Z,60
2016-05-20T06:53:36.899Z,60
2016-05-20T06:54:35.684Z,60
2016-05-20T06:55:33.499Z,55
2016-05-20T06:56:30.626Z,60
2016-05-20T06:57:42.926Z,75
2016-05-20T06:58:33.820Z,80
2016-05-20T06:59:30.634Z,90
2016-05-20T07:00:33.872Z,100
2016-05-20T07:01:30.437Z,100
2016-05-20T07:02:30.470Z,100
2016-05-20T07:03:36.411Z,90
2016-05-20T07:04:33.553Z,85
2016-05-20T07:05:27.132Z,80
2016-05-20T07:06:33.466Z,85
2016-05-20T07:07:27.184Z,90
2016-05-20T07:08:27.500Z,90
2016-05-20T07:09:30.099Z,90
2016-05-20T07:10:30.070Z,95
2016-05-20T07:11:29.995Z,95
2016-05-20T07:12:27.011Z,95
2016-05-20T07:13:30.157Z,90
2016-05-20T07:14:26.891Z,90
2016-05-20T07:15:26.863Z,90
2016-05-20T07:16:32.868Z,95
2016-05-20T07:17:26.774Z,95
2016-05-20T07:18:26.886Z,100
2016-05-20T07:19:29.532Z,105
2016-05-20T07:20:29.612Z,115
2016-05-20T07:21:30.053Z,115
2016-05-20T07:22:26.740Z,120
2016-05-20T07:23:29.462Z,120
2016-05-20T07:24:38.842Z,120
2016-05-20T07:25:35.782Z,125
2016-05-20T07:26:29.910Z,120
2016-05-20T07:27:26.660Z,110
2016-05-20T07:28:26.226Z,105
2016-05-20T07:29:30.887Z,95
2016-05-20T07:30:26.121Z,85
2016-05-20T07:31:32.487Z,80
2016-05-20T07:32:25.909Z,75
2016-05-20T07:33:30.351Z,65
2016-05-20T07:34:29.336Z,60
2016-05-20T07:35:28.870Z,60
2016-05-20T07:36:25.934Z,55
2016-05-20T07:37:25.639Z,60
2016-05-20T07:38:28.721Z,60
2016-05-20T07:39:25.692Z,65
2016-05-20T07:40:31.713Z,65
2016-05-20T07:41:25.479Z,60
2016-05-20T07:42:25.513Z,55
2016-05-20T07:43:25.391Z,55
2016-05-20T07:44:31.380Z,65
2016-05-20T07:45:25.224Z,70
2016-05-20T07:46:31.761Z,80
2016-05-20T07:47:28.433Z,85
2016-05-20T07:48:28.310Z,95
2016-05-20T07:49:25.204Z,110
2016-05-20T07:50:25.769Z,130
2016-05-20T07:51:25.350Z,135
2016-05-20T07:52:28.400Z,135
2016-05-20T07:53:31.045Z,125
2016-05-20T07:54:25.482Z,110
2016-05-20T07:55:24.657Z,115
2016-05-20T07:56:24.863Z,125
2016-05-20T07:57:24.787Z,120
2016-05-20T07:58:24.806Z,100
2016-05-20T07:59:24.793Z,95
2016-05-20T08:00:33.408Z,90
2016-05-20T08:01:24.470Z,85
2016-05-20T08:02:24.614Z,95
2016-05-20T08:03:27.898Z,110
2016-05-20T08:04:24.322Z,115
2016-05-20T08:05:24.528Z,120
2016-05-20T08:06:30.468Z,130
2016-05-20T08:07:32.520Z,135
2016-05-20T08:08:24.145Z,110
2016-05-20T08:09:24.680Z,85
2016-05-20T08:10:24.198Z,75
2016-05-20T08:11:24.060Z,70
2016-05-20T08:12:27.141Z,75
2016-05-20T08:13:24.753Z,80
2016-05-20T08:14:24.286Z,80
2016-05-20T08:15:29.977Z,80
2016-05-20T08:16:27.058Z,80
2016-05-20T08:17:51.797Z,90
2016-05-20T08:18:24.047Z,95
2016-05-20T08:19:23.644Z,100
2016-05-20T08:20:38.821Z,90
2016-05-20T08:21:27.071Z,85
2016-05-20T08:22:31.386Z,80
2016-05-20T08:23:23.467Z,90
2016-05-20T08:24:23.548Z,115
2016-05-20T08:25:42.679Z,115
2016-05-20T08:26:36.353Z,105
2016-05-20T08:27:26.306Z,95
2016-05-20T08:28:23.293Z,90
2016-05-20T08:29:32.467Z,85
2016-05-20T08:30:34.598Z,80
2016-05-20T08:31:26.301Z,80
2016-05-20T08:32:23.616Z,80
2016-05-20T08:33:26.010Z,80
2016-05-20T08:34:25.590Z,80
2016-05-20T08:35:45.814Z,75
2016-05-20T08:36:26.173Z,80
2016-05-20T08:37:31.301Z,80
2016-05-20T08:38:25.914Z,85
2016-05-20T08:39:26.525Z,95
2016-05-20T08:40:26.559Z,95
2016-05-20T08:41:29.000Z,105
2016-05-20T08:42:23.456Z,110
2016-05-20T08:43:22.318Z,120
2016-05-20T08:44:25.477Z,115
2016-05-20T08:45:28.416Z,115
2016-05-20T08:46:22.794Z,125
2016-05-20T08:47:22.594Z,125
2016-05-20T08:48:22.613Z,135
2016-05-20T08:49:28.647Z,130
2016-05-20T08:50:22.633Z,130
2016-05-20T08:51:25.918Z,140
2016-05-20T08:52:25.405Z,135
2016-05-20T08:53:25.344Z,110
2016-05-20T08:54:28.426Z,105
2016-05-20T08:55:22.631Z,120
2016-05-20T08:56:31.166Z,135
2016-05-20T08:57:24.965Z,125
2016-05-20T08:58:26.623Z,120
2016-05-20T08:59:25.346Z,110
2016-05-20T09:00:25.067Z,100
2016-05-20T09:01:21.866Z,90
2016-05-20T09:02:27.978Z,95
2016-05-20T09:03:22.981Z,100
2016-05-20T09:04:22.187Z,105
2016-05-20T09:05:21.659Z,105
2016-05-20T09:06:21.692Z,105
2016-05-20T09:07:36.745Z,90
2016-05-20T09:08:27.401Z,90
2016-05-20T09:09:24.887Z,105
2016-05-20T09:10:27.672Z,120
2016-05-20T09:11:25.143Z,135
2016-05-20T09:12:33.724Z,170
2016-05-20T09:13:28.211Z,170
2016-05-20T09:14:24.401Z,150
2016-05-20T09:15:21.185Z,130
2016-05-20T09:16:24.266Z,125
2016-05-20T09:17:21.363Z,130
2016-05-20T09:18:24.147Z,140
2016-05-20T09:19:20.978Z,145
2016-05-20T09:20:20.949Z,160
2016-05-20T09:21:27.077Z,170
2016-05-20T09:22:23.844Z,175
2016-05-20T09:23:29.004Z,185
2016-05-20T09:24:23.600Z,180
2016-05-20T09:25:20.977Z,180
2016-05-20T09:26:27.027Z,180
2016-05-20T09:27:20.810Z,175
2016-05-20T09:28:29.814Z,175
2016-05-20T09:29:23.191Z,180
2016-05-20T09:30:23.710Z,190
2016-05-20T09:31:23.369Z,185
2016-05-20T09:32:20.840Z,190
2016-05-20T09:33:26.390Z,190
2016-05-20T09:34:24.877Z,200
2016-05-20T09:35:23.161Z,205
2016-05-20T09:36:23.101Z,215
2016-05-20T09:37:20.666Z,220
2016-05-20T09:38:23.028Z,220
2016-05-20T09:39:26.031Z,215
2016-05-20T09:40:29.111Z,210
2016-05-20T09:41:25.880Z,195
2016-05-20T09:42:20.211Z,205
2016-05-20T09:43:26.042Z,210
2016-05-20T09:44:21.701Z,215
2016-05-20T09:45:26.063Z,220
2016-05-20T09:46:19.800Z,220
2016-05-20T09:47:19.943Z,210
2016-05-20T09:48:19.633Z,210
2016-05-20T09:49:25.839Z,205
2016-05-20T09:50:19.405Z,205
2016-05-20T09:51:24.891Z,200
2016-05-20T09:52:22.457Z,205
2016-05-20T09:53:19.272Z,215
2016-05-20T09:54:20.227Z,215
2016-05-20T09:55:26.027Z,205
2016-05-20T09:56:22.388Z,195
2016-05-20T09:57:19.080Z,195
2016-05-20T09:58:22.176Z,210
2016-05-20T09:59:20.412Z,220
2016-05-20T10:00:22.337Z,215
2016-05-20T10:01:22.309Z,215
2016-05-20T10:02:18.999Z,210
2016-05-20T10:03:21.908Z,205
2016-05-20T10:04:20.910Z,215
2016-05-20T10:05:22.195Z,225
2016-05-20T10:06:24.963Z,225
2016-05-20T10:07:30.794Z,225
2016-05-20T10:08:25.171Z,220
2016-05-20T10:09:26.315Z,220
2016-05-20T10:10:21.786Z,225
2016-05-20T10:11:21.804Z,225
2016-05-20T10:12:27.557Z,230
2016-05-20T10:13:18.466Z,230
2016-05-20T10:14:21.422Z,220
2016-05-20T10:15:18.394Z,210
2016-05-20T10:16:18.771Z,210
2016-05-20T10:17:21.164Z,210
2016-05-20T10:18:18.636Z,225
2016-05-20T10:19:20.763Z,225
2016-05-20T10:20:18.391Z,205
2016-05-20T10:21:18.113Z,195
2016-05-20T10:22:18.083Z,195
2016-05-20T10:23:18.368Z,200
2016-05-20T10:24:18.058Z,190
2016-05-20T10:25:19.311Z,190
2016-05-20T10:26:17.876Z,190
2016-05-20T10:27:18.301Z,195
2016-05-20T10:28:18.037Z,200
2016-05-20T10:29:18.165Z,195
2016-05-20T10:30:23.965Z,195
2016-05-20T10:31:17.530Z,205
2016-05-20T10:32:26.564Z,205
2016-05-20T10:33:17.598Z,195
2016-05-20T10:34:23.679Z,190
2016-05-20T10:35:23.666Z,170
2016-05-20T10:36:20.512Z,175
2016-05-20T10:37:20.781Z,170
2016-05-20T10:38:17.956Z,195
2016-05-20T10:39:17.426Z,200
2016-05-20T10:40:23.773Z,200
2016-05-20T10:41:23.135Z,205
2016-05-20T10:42:17.247Z,195
2016-05-20T10:43:20.235Z,195
2016-05-20T10:44:17.049Z,195
2016-05-20T10:45:23.131Z,180
2016-05-20T10:46:24.774Z,170
2016-05-20T10:47:19.980Z,185
2016-05-20T10:48:23.733Z,210
2016-05-20T10:49:16.892Z,225
2016-05-20T10:50:17.159Z,205
2016-05-20T10:51:19.786Z,175
2016-05-20T10:52:20.150Z,160
2016-05-20T10:53:20.949Z,150
2016-05-20T10:54:20.061Z,140
2016-05-20T10:55:16.907Z,130
2016-05-20T10:56:22.582Z,110
2016-05-20T10:57:16.585Z,95
2016-05-20T10:58:19.338Z,95
2016-05-20T10:59:17.153Z,105
2016-05-20T11:00:16.795Z,105
2016-05-20T11:01:19.532Z,115
2016-05-20T11:02:16.129Z,105
2016-05-20T11:03:19.507Z,85
2016-05-20T11:04:16.151Z,85
2016-05-20T11:05:19.668Z,85
2016-05-20T11:06:16.124Z,85
2016-05-20T11:07:18.893Z,95
2016-05-20T11:08:15.989Z,105
2016-05-20T11:09:18.945Z,95
2016-05-20T11:10:15.776Z,80
2016-05-20T11:11:16.388Z,75
2016-05-20T11:12:26.579Z,75
2016-05-20T11:13:16.065Z,65
2016-05-20T11:14:15.880Z,65
2016-05-20T11:15:18.961Z,60
2016-05-20T11:16:18.933Z,60
2016-05-20T11:17:17.170Z,60
2016-05-20T11:18:18.766Z,70
2016-05-20T11:19:18.972Z,80
2016-05-20T11:20:23.006Z,100
2016-05-20T11:21:15.367Z,115
2016-05-20T11:22:18.808Z,115
2016-05-20T11:23:15.622Z,120
2016-05-20T11:24:15.469Z,115
2016-05-20T11:25:15.300Z,110
2016-05-20T11:26:18.163Z,125
2016-05-20T11:27:15.743Z,145
2016-05-20T11:28:15.465Z,150
2016-05-20T11:29:15.264Z,150
2016-05-20T11:30:21.049Z,145
2016-05-20T11:31:18.192Z,155
2016-05-20T11:32:26.601Z,180
2016-05-20T11:33:21.119Z,180
2016-05-20T11:34:17.793Z,170
2016-05-20T11:35:17.734Z,165
2016-05-20T11:36:17.752Z,185
2016-05-20T11:37:20.567Z,195
2016-05-20T11:38:14.679Z,175
2016-05-20T11:39:14.603Z,155
2016-05-20T11:40:18.168Z,135
2016-05-20T11:41:14.593Z,115
2016-05-20T11:42:14.471Z,135
2016-05-20T11:43:17.317Z,155
2016-05-20T11:44:17.274Z,170
2016-05-20T11:45:17.182Z,175
2016-05-20T11:46:24.044Z,155
2016-05-20T11:47:14.047Z,140
2016-05-20T11:48:14.753Z,130
2016-05-20T11:49:17.818Z,140
2016-05-20T11:50:14.102Z,100
2016-05-20T11:51:16.793Z,75
2016-05-20T11:52:14.138Z,55
2016-05-20T11:53:13.985Z,55
2016-05-20T11:54:16.831Z,60
2016-05-20T11:55:13.584Z,80
2016-05-20T11:56:13.681Z,115
2016-05-20T11:57:14.433Z,150
2016-05-20T11:58:13.999Z,185
2016-05-20T11:59:13.533Z,200
2016-05-20T12:00:16.691Z,185
2016-05-20T12:01:14.304Z,175
2016-05-20T12:02:18.353Z,150
2016-05-20T12:03:22.793Z,130
2016-05-20T12:04:16.624Z,115
2016-05-20T12:05:22.830Z,90
2016-05-20T12:06:13.770Z,80
2016-05-20T12:07:16.304Z,85
2016-05-20T12:08:16.587Z,90
2016-05-20T12:09:13.451Z,95
2016-05-20T12:10:13.218Z,100
2016-05-20T12:11:17.659Z,100
2016-05-20T12:12:18.959Z,100
2016-05-20T12:13:16.118Z,85
2016-05-20T12:14:16.057Z,80
2016-05-20T12:15:13.512Z,80
2016-05-20T12:16:16.297Z,85
2016-05-20T12:17:12.800Z,90
2016-05-20T12:18:14.334Z,90
2016-05-20T12:19:18.852Z,100
2016-05-20T12:20:12.714Z,95
2016-05-20T12:21:18.700Z,105
2016-05-20T12:22:22.203Z,155
2016-05-20T12:23:18.238Z,215
2016-05-20T12:24:18.553Z,195
2016-05-20T12:25:21.540Z,175
2016-05-20T12:26:18.902Z,215
2016-05-20T12:27:18.639Z,235
2016-05-20T12:28:18.627Z,220
2016-05-20T12:29:15.941Z,190
2016-05-20T12:30:12.507Z,170
2016-05-20T12:31:14.931Z,140
2016-05-20T12:32:18.293Z,110
2016-05-20T12:33:12.343Z,105
2016-05-20T12:34:15.127Z,90
2016-05-20T12:35:12.052Z,95
2016-05-20T12:36:12.273Z,125
2016-05-20T12:37:11.916Z,150
2016-05-20T12:38:15.215Z,170
2016-05-20T12:39:12.297Z,185
2016-05-20T12:40:18.627Z,245
2016-05-20T12:41:11.864Z,285
2016-05-20T12:42:11.805Z,295
2016-05-20T12:43:11.776Z,260
2016-05-20T12:44:11.732Z,230
2016-05-20T12:45:12.093Z,200
2016-05-20T12:46:11.706Z,180
2016-05-20T12:47:14.692Z,170
2016-05-20T12:48:14.914Z,195
2016-05-20T12:49:14.948Z,235
2016-05-20T12:50:11.529Z,265
2016-05-20T12:51:14.985Z,245
2016-05-20T12:52:11.706Z,245
2016-05-20T12:53:14.303Z,250
2016-05-20T12:54:14.181Z,245
2016-05-20T12:55:11.918Z,250
2016-05-20T12:56:11.747Z,255
2016-05-20T12:57:17.172Z,280
2016-05-20T12:58:14.379Z,260
2016-05-20T12:59:11.210Z,225
2016-05-20T13:00:10.994Z,195
2016-05-20T13:01:11.793Z,160
2016-05-20T13:02:14.358Z,150
2016-05-20T13:03:16.971Z,155
2016-05-20T13:04:13.864Z,160
2016-05-20T13:05:14.288Z,160
2016-05-20T13:06:10.462Z,155
2016-05-20T13:07:11.294Z,175
2016-05-20T13:08:10.702Z,205
2016-05-20T13:09:13.361Z,230
2016-05-20T13:10:10.615Z,255
2016-05-20T13:11:13.617Z,260
2016-05-20T13:12:10.557Z,245
2016-05-20T13:13:10.513Z,225
2016-05-20T13:14:10.406Z,195
2016-05-20T13:15:10.221Z,155
2016-05-20T13:16:10.537Z,140
2016-05-20T13:17:10.789Z,120
2016-05-20T13:18:10.620Z,115
2016-05-20T13:19:10.607Z,110
2016-05-20T13:20:10.423Z,90
2016-05-20T13:21:10.222Z,90
2016-05-20T13:22:10.021Z,130
2016-05-20T13:23:09.837Z,185
2016-05-20T13:24:09.980Z,210
2016-05-20T13:25:10.107Z,215
2016-05-20T13:26:09.861Z,220
2016-05-20T13:27:13.019Z,245
2016-05-20T13:28:09.975Z,240
2016-05-20T13:29:12.791Z,225
2016-05-20T13:30:13.043Z,220
2016-05-20T13:31:09.561Z,220
2016-05-20T13:32:15.580Z,230
2016-05-20T13:33:09.629Z,230
2016-05-20T13:34:12.475Z,235
2016-05-20T13:35:12.228Z,245
2016-05-20T13:36:14.356Z,240
2016-05-20T13:37:09.640Z,210
2016-05-20T13:38:15.392Z,170
2016-05-20T13:39:09.318Z,160
2016-05-20T13:40:09.648Z,150
2016-05-20T13:41:09.165Z,145
2016-05-20T13:42:11.997Z,155
2016-05-20T13:43:12.156Z,170
2016-05-20T13:44:09.784Z,165
2016-05-20T13:45:10.146Z,165
2016-05-20T13:46:11.992Z,165
2016-05-20T13:47:11.760Z,175
2016-05-20T13:48:12.951Z,175
2016-05-20T13:49:14.812Z,175
2016-05-20T13:50:08.847Z,170
2016-05-20T13:51:12.114Z,195
2016-05-20T13:52:17.712Z,205
2016-05-20T13:53:12.073Z,175
2016-05-20T13:54:08.795Z,230
2016-05-20T13:55:15.297Z,265
2016-05-20T13:56:11.753Z,270
2016-05-20T13:57:08.553Z,285
2016-05-20T13:58:08.274Z,290
2016-05-20T13:59:17.386Z,285
2016-05-20T14:00:08.170Z,250
2016-05-20T14:01:08.094Z,235
2016-05-20T14:02:11.300Z,225
2016-05-20T14:03:08.460Z,180
2016-05-20T14:04:08.213Z,175
2016-05-20T14:05:07.950Z,150
2016-05-20T14:06:10.905Z,125
2016-05-20T14:07:10.893Z,115
2016-05-20T14:08:10.208Z,130
2016-05-20T14:09:08.179Z,155
2016-05-20T14:10:10.447Z,165
2016-05-20T14:11:08.012Z,120
2016-05-20T14:12:11.671Z,80